Time;durP1;ratioP1;P1;durP2;ratioP2;P2;SDS_P1;SDS_P2;PMS_P1;PMS_P2;Temp;Humidity;BMP_temperature;BMP_pressure;BME280_temperature;BME280_humidity;BME280_pressure;Samples;Min_cycle;Max_cycle;Signal;HPM_P1;HPM_P2
2022/10/05 00:02:04;;;;;;;6.13;5.60;;;;;;;;;;5119120;27;20902;-71
2022/10/05 00:04:32;;;;;;;6.67;5.40;;;;;;;;;;5137225;27;20473;-71
2022/10/05 00:07:02;;;;;;;7.67;6.43;;;;;;;;;;5137214;27;20426;-71
2022/10/05 00:09:30;;;;;;;6.23;5.83;;;;;;;;;;5137346;27;20415;-72
2022/10/05 00:11:56;;;;;;;6.83;6.43;;;;;;;;;;5118870;27;20420;-72
2022/10/05 00:14:22;;;;;;;6.53;6.03;;;;;;;;;;5137243;27;20411;-71
2022/10/05 00:16:48;;;;;;;6.40;5.90;;;;;;;;;;5137155;27;20399;-72
2022/10/05 00:19:32;;;;;;;6.27;5.97;;;;;;;;;;5137162;27;20414;-71
2022/10/05 00:22:17;;;;;;;6.13;5.57;;;;;;;;;;5137094;27;20554;-71
2022/10/05 00:24:44;;;;;;;5.27;5.07;;;;;;;;;;5137048;27;20767;-72
2022/10/05 00:27:14;;;;;;;5.90;5.60;;;;;;;;;;5137012;27;20462;-71
2022/10/05 00:29:40;;;;;;;5.90;5.50;;;;;;;;;;5137130;27;20407;-72
2022/10/05 00:32:07;;;;;;;7.73;6.23;;;;;;;;;;5136912;27;20874;-72
2022/10/05 00:34:34;;;;;;;5.03;4.83;;;;;;;;;;5136877;27;20404;-72
2022/10/05 00:37:00;;;;;;;7.23;5.77;;;;;;;;;;5136744;27;20407;-72
2022/10/05 00:39:26;;;;;;;11.90;5.77;;;;;;;;;;5136032;27;20415;-72
2022/10/05 00:42:10;;;;;;;6.73;6.17;;;;;;;;;;5136209;27;20392;-72
2022/10/05 00:44:40;;;;;;;6.43;6.07;;;;;;;;;;5136657;27;20396;-72
2022/10/05 00:47:06;;;;;;;5.77;5.23;;;;;;;;;;5136456;27;20396;-71
2022/10/05 00:49:51;;;;;;;9.60;5.80;;;;;;;;;;5118212;27;20536;-72
2022/10/05 00:52:36;;;;;;;5.90;5.60;;;;;;;;;;5136512;27;20402;-72
2022/10/05 00:55:02;;;;;;;7.07;5.80;;;;;;;;;;5136433;27;20468;-71
2022/10/05 00:57:36;;;;;;;6.33;5.53;;;;;;;;;;5117904;27;20411;-72
2022/10/05 01:00:07;;;;;;;7.03;6.53;;;;;;;;;;5136366;27;20439;-71
2022/10/05 01:02:38;;;;;;;6.57;5.67;;;;;;;;;;5136329;27;20929;-72
2022/10/05 01:05:04;;;;;;;9.43;5.27;;;;;;;;;;5136101;27;20471;-71
2022/10/05 01:07:48;;;;;;;7.70;6.10;;;;;;;;;;5135999;27;20473;-71
2022/10/05 01:10:25;;;;;;;5.53;5.23;;;;;;;;;;5136130;27;20468;-72
2022/10/05 01:12:51;;;;;;;11.47;5.90;;;;;;;;;;5136047;27;20399;-72
2022/10/05 01:15:23;;;;;;;7.57;6.30;;;;;;;;;;5135995;27;20487;-72
2022/10/05 01:17:54;;;;;;;5.40;4.90;;;;;;;;;;5135899;27;20423;-72
2022/10/05 01:20:38;;;;;;;5.90;5.60;;;;;;;;;;5117823;27;20434;-71
2022/10/05 01:23:07;;;;;;;7.43;4.90;;;;;;;;;;5135836;27;20498;-72
2022/10/05 01:25:51;;;;;;;5.30;5.10;;;;;;;;;;5135814;27;20411;-72
2022/10/05 01:28:23;;;;;;;5.63;5.10;;;;;;;;;;5117301;27;20475;-72
2022/10/05 01:30:55;;;;;;;5.33;4.80;;;;;;;;;;5135627;27;20399;-72
2022/10/05 01:33:32;;;;;;;5.00;4.80;;;;;;;;;;5135639;27;20405;-72
2022/10/05 01:36:17;;;;;;;5.20;4.80;;;;;;;;;;5135525;27;20414;-71
2022/10/05 01:39:09;;;;;;;5.93;5.53;;;;;;;;;;5117203;27;20502;-72
2022/10/05 01:41:44;;;;;;;6.00;5.53;;;;;;;;;;5135551;27;20432;-71
2022/10/05 01:44:10;;;;;;;5.70;5.40;;;;;;;;;;5135408;27;20398;-72
2022/10/05 01:46:48;;;;;;;13.87;6.37;;;;;;;;;;5117008;27;20493;-71
2022/10/05 01:49:17;;;;;;;6.13;5.77;;;;;;;;;;5116839;27;20562;-71
2022/10/05 01:51:52;;;;;;;9.83;5.50;;;;;;;;;;5135005;27;20399;-71
2022/10/05 01:54:37;;;;;;;6.00;5.80;;;;;;;;;;5135255;27;20403;-72
2022/10/05 01:57:22;;;;;;;6.00;5.80;;;;;;;;;;5116792;27;20445;-72
2022/10/05 02:00:06;;;;;;;6.30;5.67;;;;;;;;;;5135214;27;20425;-72
2022/10/05 02:02:35;;;;;;;6.63;6.23;;;;;;;;;;5116768;27;20403;-72
2022/10/05 02:05:04;;;;;;;7.13;6.67;;;;;;;;;;5098058;28;21040;-71
2022/10/05 02:07:37;;;;;;;7.27;6.67;;;;;;;;;;5093893;28;20543;-71
2022/10/05 02:10:13;;;;;;;6.57;6.00;;;;;;;;;;5093963;28;20758;-71
2022/10/05 02:12:39;;;;;;;7.30;6.67;;;;;;;;;;5094018;28;20799;-71
2022/10/05 02:15:17;;;;;;;7.70;6.43;;;;;;;;;;5094036;28;20410;-71
2022/10/05 02:17:49;;;;;;;8.30;7.10;;;;;;;;;;5093902;28;20404;-72
2022/10/05 02:20:20;;;;;;;9.30;6.37;;;;;;;;;;5093878;28;20989;-73
2022/10/05 02:22:47;;;;;;;7.23;6.63;;;;;;;;;;5094007;28;20397;-72
2022/10/05 02:25:19;;;;;;;7.77;5.77;;;;;;;;;;5093845;28;20413;-72
2022/10/05 02:27:47;;;;;;;5.77;5.43;;;;;;;;;;5093651;28;20460;-72
2022/10/05 02:30:16;;;;;;;7.67;6.20;;;;;;;;;;5093964;28;20863;-71
2022/10/05 02:32:50;;;;;;;6.20;5.80;;;;;;;;;;5093711;28;20407;-71
2022/10/05 02:35:17;;;;;;;5.87;5.47;;;;;;;;;;5093613;28;20415;-72
2022/10/05 02:37:44;;;;;;;5.23;4.90;;;;;;;;;;5093695;28;20405;-72
2022/10/05 02:40:10;;;;;;;6.00;5.70;;;;;;;;;;5093642;28;20968;-72
2022/10/05 02:42:55;;;;;;;6.50;5.67;;;;;;;;;;5093618;28;20440;-72
2022/10/05 02:45:25;;;;;;;7.47;6.60;;;;;;;;;;5092301;28;20435;-72
2022/10/05 02:48:09;;;;;;;6.70;6.10;;;;;;;;;;5093516;28;20473;-72
2022/10/05 02:50:53;;;;;;;6.67;5.53;;;;;;;;;;5093522;28;20499;-72
2022/10/05 02:53:33;;;;;;;9.37;6.40;;;;;;;;;;5093413;28;20924;-72
2022/10/05 02:56:20;;;;;;;7.17;6.70;;;;;;;;;;5093478;28;20419;-72
2022/10/05 02:58:58;;;;;;;6.63;6.03;;;;;;;;;;5093367;28;20780;-71
2022/10/05 03:01:27;;;;;;;6.93;6.33;;;;;;;;;;5093355;28;20441;-72
2022/10/05 03:04:07;;;;;;;8.63;6.13;;;;;;;;;;5106135;27;20454;-72
2022/10/05 03:06:36;;;;;;;5.70;5.50;;;;;;;;;;5120077;27;20430;-72
2022/10/05 03:09:09;;;;;;;5.97;5.77;;;;;;;;;;5138458;27;20495;-71
2022/10/05 03:11:40;;;;;;;6.60;6.20;;;;;;;;;;5138465;27;20811;-72
2022/10/05 03:14:06;;;;;;;9.33;5.07;;;;;;;;;;5119974;27;20431;-72
2022/10/05 03:16:35;;;;;;;7.30;5.57;;;;;;;;;;5138354;27;20439;-71
2022/10/05 03:19:20;;;;;;;5.70;5.30;;;;;;;;;;5138270;27;20506;-72
2022/10/05 03:21:55;;;;;;;7.27;5.87;;;;;;;;;;5138298;27;20411;-72
2022/10/05 03:24:44;;;;;;;4.90;4.70;;;;;;;;;;5138260;27;20402;-72
2022/10/05 03:27:26;;;;;;;4.83;4.63;;;;;;;;;;5138065;27;20410;-72
2022/10/05 03:29:54;;;;;;;9.83;5.40;;;;;;;;;;5138087;27;20460;-72
2022/10/05 03:32:25;;;;;;;5.80;4.83;;;;;;;;;;5138008;27;20395;-72
2022/10/05 03:35:11;;;;;;;4.80;4.60;;;;;;;;;;5119482;27;20419;-72
2022/10/05 03:37:46;;;;;;;5.90;4.90;;;;;;;;;;5119529;27;20522;-71
2022/10/05 03:40:22;;;;;;;7.40;4.50;;;;;;;;;;5137882;27;20413;-72
2022/10/05 03:43:00;;;;;;;4.93;4.73;;;;;;;;;;5137800;27;20498;-72
2022/10/05 03:45:26;;;;;;;4.60;4.40;;;;;;;;;;5137826;27;20962;-72
2022/10/05 03:47:56;;;;;;;3.83;3.63;;;;;;;;;;5137670;27;20455;-71
2022/10/05 03:50:22;;;;;;;3.67;3.57;;;;;;;;;;5137678;27;20463;-72
2022/10/05 03:52:51;;;;;;;5.43;4.17;;;;;;;;;;5137614;27;20464;-72
2022/10/05 03:55:25;;;;;;;4.13;3.80;;;;;;;;;;5137592;27;20407;-72
2022/10/05 03:57:52;;;;;;;5.70;3.57;;;;;;;;;;5137590;27;20442;-72
2022/10/05 04:00:24;;;;;;;4.17;3.80;;;;;;;;;;5119065;27;20414;-72
2022/10/05 04:03:09;;;;;;;6.03;3.97;;;;;;;;;;5137392;27;20407;-72
2022/10/05 04:05:37;;;;;;;3.47;3.03;;;;;;;;;;5137096;27;20458;-72
2022/10/05 04:08:22;;;;;;;5.97;4.20;;;;;;;;;;5137243;27;20463;-72
2022/10/05 04:10:56;;;;;;;4.17;3.77;;;;;;;;;;5137292;27;20407;-72
2022/10/05 04:13:30;;;;;;;5.70;4.33;;;;;;;;;;5118605;27;20410;-72
2022/10/05 04:16:02;;;;;;;4.50;4.03;;;;;;;;;;5137001;27;20415;-72
2022/10/05 04:18:31;;;;;;;7.13;4.50;;;;;;;;;;5118802;27;20407;-72
2022/10/05 04:21:04;;;;;;;4.73;4.40;;;;;;;;;;5137104;27;20430;-71
2022/10/05 04:23:48;;;;;;;5.07;4.67;;;;;;;;;;5137332;27;20395;-72
2022/10/05 04:26:18;;;;;;;4.77;4.10;;;;;;;;;;5136975;27;20400;-72
2022/10/05 04:28:48;;;;;;;4.97;4.33;;;;;;;;;;5118437;27;20824;-72
2022/10/05 04:31:18;;;;;;;4.97;4.60;;;;;;;;;;5136887;27;20409;-72
2022/10/05 04:33:49;;;;;;;4.90;4.57;;;;;;;;;;5136826;27;20424;-72
2022/10/05 04:36:21;;;;;;;5.10;4.90;;;;;;;;;;5136874;27;20407;-72
2022/10/05 04:38:59;;;;;;;5.80;5.40;;;;;;;;;;5136788;27;20491;-72
2022/10/05 04:41:25;;;;;;;5.60;5.20;;;;;;;;;;5136748;27;20407;-73
2022/10/05 04:44:00;;;;;;;6.37;5.80;;;;;;;;;;5136634;27;20404;-72
2022/10/05 04:46:35;;;;;;;4.70;4.20;;;;;;;;;;5136601;27;20410;-72
2022/10/05 04:49:20;;;;;;;5.97;5.37;;;;;;;;;;5136471;27;20587;-72
2022/10/05 04:51:53;;;;;;;7.50;4.87;;;;;;;;;;5136504;27;20898;-72
2022/10/05 04:54:39;;;;;;;5.57;5.27;;;;;;;;;;5117944;27;20507;-72
2022/10/05 04:57:10;;;;;;;5.70;4.87;;;;;;;;;;5134880;27;20459;-72
2022/10/05 04:59:50;;;;;;;5.93;5.43;;;;;;;;;;5136413;27;20429;-72
2022/10/05 05:02:19;;;;;;;5.70;5.30;;;;;;;;;;5136303;27;20538;-72
2022/10/05 05:04:45;;;;;;;11.50;10.27;;;;;;;;;;5136101;27;20469;-72
2022/10/05 05:07:11;;;;;;;24.87;20.60;;;;;;;;;;5136054;27;20763;-72
2022/10/05 05:09:55;;;;;;;7.17;6.40;;;;;;;;;;5136096;27;20440;-72
2022/10/05 05:12:34;;;;;;;5.80;5.50;;;;;;;;;;5117614;27;20423;-72
2022/10/05 05:15:15;;;;;;;5.80;5.40;;;;;;;;;;5136080;27;20918;-72
2022/10/05 05:17:44;;;;;;;6.00;5.50;;;;;;;;;;5136076;27;20403;-72
2022/10/05 05:20:30;;;;;;;9.83;5.30;;;;;;;;;;5117493;27;20552;-72
2022/10/05 05:23:05;;;;;;;6.13;5.60;;;;;;;;;;5084244;27;20427;-71
2022/10/05 05:25:49;;;;;;;9.07;5.87;;;;;;;;;;5135634;27;20751;-72
2022/10/05 05:28:35;;;;;;;6.77;5.97;;;;;;;;;;5135603;27;20572;-72
2022/10/05 05:31:27;;;;;;;8.87;6.73;;;;;;;;;;5135682;27;20411;-71
2022/10/05 05:34:17;;;;;;;11.60;6.20;;;;;;;;;;5135763;27;20486;-72
2022/10/05 05:36:49;;;;;;;28.23;9.80;;;;;;;;;;5135572;27;20411;-72
2022/10/05 05:39:33;;;;;;;18.93;9.73;;;;;;;;;;5135525;27;20810;-72
2022/10/05 05:42:20;;;;;;;6.77;6.17;;;;;;;;;;5135527;27;20422;-72
2022/10/05 05:44:51;;;;;;;8.40;7.13;;;;;;;;;;5117106;27;20427;-72
2022/10/05 05:47:22;;;;;;;6.83;6.40;;;;;;;;;;5135367;27;20396;-72
2022/10/05 05:50:07;;;;;;;6.83;6.40;;;;;;;;;;5116927;27;20799;-72
2022/10/05 05:52:39;;;;;;;7.30;6.30;;;;;;;;;;5116779;27;20423;-75
2022/10/05 05:55:25;;;;;;;6.90;6.40;;;;;;;;;;5135194;27;20407;-73
2022/10/05 05:57:58;;;;;;;7.60;7.00;;;;;;;;;;5135260;27;20407;-72
2022/10/05 06:00:28;;;;;;;6.73;6.10;;;;;;;;;;5135101;27;20400;-72
2022/10/05 06:02:57;;;;;;;6.87;6.30;;;;;;;;;;5134956;27;20415;-72
2022/10/05 06:05:29;;;;;;;7.50;5.90;;;;;;;;;;5134874;27;20463;-72
2022/10/05 06:07:57;;;;;;;6.43;6.07;;;;;;;;;;5134991;27;20493;-72
2022/10/05 06:10:25;;;;;;;11.03;6.00;;;;;;;;;;5134934;27;20439;-71
2022/10/05 06:12:52;;;;;;;21.57;7.60;;;;;;;;;;5134927;27;20763;-71
2022/10/05 06:15:18;;;;;;;8.40;6.13;;;;;;;;;;5116464;27;20777;-73
2022/10/05 06:17:51;;;;;;;6.97;6.27;;;;;;;;;;5134858;27;20408;-72
2022/10/05 06:20:25;;;;;;;8.90;6.80;;;;;;;;;;5116423;27;20466;-71
2022/10/05 06:22:51;;;;;;;7.37;6.70;;;;;;;;;;5135151;27;20467;-71
2022/10/05 06:25:27;;;;;;;8.20;6.80;;;;;;;;;;5134839;27;20411;-71
2022/10/05 06:28:10;;;;;;;8.83;7.40;;;;;;;;;;5134571;27;20486;-72
2022/10/05 06:30:42;;;;;;;10.10;9.17;;;;;;;;;;5134591;27;20417;-72
2022/10/05 06:33:18;;;;;;;9.80;8.33;;;;;;;;;;5134661;27;20387;-71
2022/10/05 06:36:02;;;;;;;12.33;9.00;;;;;;;;;;5134578;27;20442;-72
2022/10/05 06:38:34;;;;;;;11.27;9.70;;;;;;;;;;5133616;27;20395;-70
2022/10/05 06:41:24;;;;;;;10.00;9.20;;;;;;;;;;5134715;27;20419;-70
2022/10/05 06:44:03;;;;;;;10.93;9.93;;;;;;;;;;5134748;27;20858;-70
2022/10/05 06:46:35;;;;;;;12.17;10.97;;;;;;;;;;5134350;27;20531;-70
2022/10/05 06:49:17;;;;;;;16.67;12.77;;;;;;;;;;5134469;27;20477;-69
2022/10/05 06:51:49;;;;;;;15.20;12.03;;;;;;;;;;5134364;28;20411;-69
2022/10/05 06:54:26;;;;;;;15.00;11.87;;;;;;;;;;5115906;28;20933;-70
2022/10/05 06:57:02;;;;;;;15.90;9.63;;;;;;;;;;5134390;28;20978;-70
2022/10/05 06:59:32;;;;;;;18.27;11.17;;;;;;;;;;5115958;28;20410;-69
2022/10/05 07:01:58;;;;;;;14.40;9.67;;;;;;;;;;5134308;28;20407;-70
2022/10/05 07:04:33;;;;;;;15.30;13.00;;;;;;;;;;5134121;28;20515;-70
2022/10/05 07:07:13;;;;;;;15.30;11.33;;;;;;;;;;5134188;28;20433;-70
2022/10/05 07:09:42;;;;;;;14.20;9.80;;;;;;;;;;5115834;28;20430;-71
2022/10/05 07:12:18;;;;;;;14.33;11.20;;;;;;;;;;5134260;28;20415;-72
2022/10/05 07:15:03;;;;;;;16.53;9.77;;;;;;;;;;5115770;28;20779;-70
2022/10/05 07:17:29;;;;;;;11.77;10.50;;;;;;;;;;5134215;28;20414;-71
2022/10/05 07:20:02;;;;;;;12.40;11.10;;;;;;;;;;5134179;28;20886;-71
2022/10/05 07:22:42;;;;;;;18.93;14.10;;;;;;;;;;5134029;28;20396;-71
2022/10/05 07:25:27;;;;;;;10.93;9.47;;;;;;;;;;5115682;28;20933;-71
2022/10/05 07:28:04;;;;;;;9.47;8.70;;;;;;;;;;5115584;28;20840;-71
2022/10/05 07:30:31;;;;;;;9.90;9.00;;;;;;;;;;5134063;28;20502;-71
2022/10/05 07:33:26;;;;;;;9.67;8.80;;;;;;;;;;5134041;28;20403;-71
2022/10/05 07:38:46;;;;;;;18.20;16.40;;;;;;;;;;5134029;28;20399;-70
2022/10/05 07:41:18;;;;;;;12.83;10.67;;;;;;;;;;5134050;28;20407;-71
2022/10/05 07:43:55;;;;;;;12.70;9.30;;;;;;;;;;5115535;28;20450;-70
2022/10/05 07:46:37;;;;;;;11.33;8.33;;;;;;;;;;5133972;28;20400;-71
2022/10/05 07:49:12;;;;;;;19.33;12.97;;;;;;;;;;5134217;27;20466;-71
2022/10/05 07:51:40;;;;;;;17.90;10.30;;;;;;;;;;5137660;27;20532;-71
2022/10/05 07:54:27;;;;;;;16.87;10.73;;;;;;;;;;5137554;27;20401;-71
2022/10/05 07:57:13;;;;;;;15.90;7.97;;;;;;;;;;5119000;27;20461;-71
2022/10/05 07:59:56;;;;;;;8.03;7.20;;;;;;;;;;5137561;27;20413;-71
2022/10/05 08:02:28;;;;;;;9.20;7.67;;;;;;;;;;5118957;27;20437;-70
2022/10/05 08:05:03;;;;;;;9.17;8.50;;;;;;;;;;5137379;27;20465;-70
2022/10/05 08:07:31;;;;;;;8.07;7.57;;;;;;;;;;5137583;27;20447;-72
2022/10/05 08:10:20;;;;;;;9.20;8.30;;;;;;;;;;5137314;27;20402;-71
2022/10/05 08:13:01;;;;;;;8.57;7.97;;;;;;;;;;5124058;27;20431;-72
2022/10/05 08:15:31;;;;;;;8.33;7.83;;;;;;;;;;5137168;27;20410;-72
2022/10/05 08:17:59;;;;;;;8.13;7.47;;;;;;;;;;5137222;27;20406;-72
2022/10/05 08:20:31;;;;;;;10.30;8.00;;;;;;;;;;5137073;27;20406;-71
2022/10/05 08:23:00;;;;;;;9.43;8.33;;;;;;;;;;5137063;27;20450;-71
2022/10/05 08:25:44;;;;;;;8.73;6.13;;;;;;;;;;5137072;27;20410;-72
2022/10/05 08:28:14;;;;;;;7.33;6.63;;;;;;;;;;5118429;27;21018;-77
2022/10/05 08:30:55;;;;;;;5.47;4.97;;;;;;;;;;5136876;27;20432;-71
2022/10/05 08:33:22;;;;;;;6.20;5.60;;;;;;;;;;5136931;27;20403;-71
2022/10/05 08:35:54;;;;;;;5.83;5.17;;;;;;;;;;5136785;27;20816;-71
2022/10/05 08:38:24;;;;;;;4.50;3.93;;;;;;;;;;5136743;27;20434;-71
2022/10/05 08:41:02;;;;;;;3.87;3.67;;;;;;;;;;5136750;27;20408;-71
2022/10/05 08:43:44;;;;;;;2.60;2.00;;;;;;;;;;5118205;27;20845;-71
2022/10/05 08:46:29;;;;;;;2.30;2.20;;;;;;;;;;5136563;27;20454;-71
2022/10/05 08:48:55;;;;;;;2.27;2.03;;;;;;;;;;5136531;27;20488;-71
2022/10/05 08:51:33;;;;;;;2.20;2.10;;;;;;;;;;5118146;27;20778;-71
2022/10/05 08:54:05;;;;;;;1.90;1.87;;;;;;;;;;5117915;27;20509;-71
2022/10/05 08:56:34;;;;;;;1.50;1.50;;;;;;;;;;5136337;27;20411;-71
2022/10/05 08:59:19;;;;;;;2.73;1.80;;;;;;;;;;5117863;27;20514;-73
2022/10/05 09:02:03;;;;;;;4.23;1.80;;;;;;;;;;5135353;27;20404;-71
2022/10/05 09:04:32;;;;;;;1.97;1.70;;;;;;;;;;5136131;27;20452;-69
2022/10/05 09:07:01;;;;;;;1.90;1.80;;;;;;;;;;5136285;27;20410;-69
2022/10/05 09:09:37;;;;;;;3.30;3.10;;;;;;;;;;5136145;27;20464;-70
2022/10/05 09:12:19;;;;;;;2.00;1.90;;;;;;;;;;5136234;27;20784;-71
2022/10/05 09:14:48;;;;;;;2.13;1.70;;;;;;;;;;5136135;27;20485;-68
2022/10/05 09:17:29;;;;;;;2.00;1.90;;;;;;;;;;5136091;27;20407;-73
2022/10/05 09:20:10;;;;;;;1.40;1.40;;;;;;;;;;5136003;27;20408;-71
2022/10/05 09:22:56;;;;;;;2.90;1.70;;;;;;;;;;5135886;27;20421;-71
2022/10/05 09:25:25;;;;;;;1.70;1.63;;;;;;;;;;5117465;27;20921;-69
2022/10/05 09:28:12;;;;;;;1.60;1.50;;;;;;;;;;5135697;27;20470;-71
2022/10/05 09:30:45;;;;;;;2.53;1.40;;;;;;;;;;5135617;27;20490;-71
2022/10/05 09:33:24;;;;;;;3.53;1.47;;;;;;;;;;5135697;27;20493;-70
2022/10/05 09:35:59;;;;;;;2.10;1.40;;;;;;;;;;5135690;27;20416;-70
2022/10/05 09:38:37;;;;;;;1.30;1.20;;;;;;;;;;5135609;27;20417;-70
2022/10/05 09:41:10;;;;;;;1.37;1.30;;;;;;;;;;5135565;27;20406;-70
2022/10/05 09:43:45;;;;;;;2.03;1.30;;;;;;;;;;5117124;27;20441;-72
2022/10/05 09:46:11;;;;;;;1.03;0.90;;;;;;;;;;5135318;27;20904;-71
2022/10/05 09:48:40;;;;;;;2.80;1.43;;;;;;;;;;5135121;27;20462;-71
2022/10/05 09:51:18;;;;;;;1.20;1.20;;;;;;;;;;5135121;27;20422;-71
2022/10/05 09:54:01;;;;;;;1.00;1.00;;;;;;;;;;5116859;27;20930;-70
2022/10/05 09:56:33;;;;;;;1.23;1.17;;;;;;;;;;5135281;27;20852;-70
2022/10/05 09:59:18;;;;;;;0.90;0.90;;;;;;;;;;5135181;27;20401;-71
2022/10/05 10:02:03;;;;;;;1.40;1.40;;;;;;;;;;5135169;27;20436;-72
2022/10/05 10:04:48;;;;;;;1.30;1.13;;;;;;;;;;5134872;27;20493;-69
2022/10/05 10:07:32;;;;;;;1.27;1.17;;;;;;;;;;5134902;27;20468;-69
2022/10/05 10:10:17;;;;;;;0.97;0.97;;;;;;;;;;5135118;27;20417;-69
2022/10/05 10:12:46;;;;;;;3.20;1.23;;;;;;;;;;5134796;27;20408;-69
2022/10/05 10:15:27;;;;;;;1.00;1.00;;;;;;;;;;5134970;27;20502;-70
2022/10/05 10:18:16;;;;;;;1.23;1.10;;;;;;;;;;5134836;27;20417;-68
2022/10/05 10:20:42;;;;;;;2.10;1.10;;;;;;;;;;5134800;27;20410;-70
2022/10/05 10:23:19;;;;;;;2.97;1.07;;;;;;;;;;5134748;27;20744;-68
2022/10/05 10:26:04;;;;;;;1.17;1.07;;;;;;;;;;5134709;27;20204;-70
2022/10/05 10:28:35;;;;;;;1.47;1.20;;;;;;;;;;5134630;27;20969;-68
2022/10/05 10:31:06;;;;;;;1.30;1.20;;;;;;;;;;5134653;27;20397;-69
2022/10/05 10:33:42;;;;;;;3.60;0.83;;;;;;;;;;5134561;27;20515;-68
2022/10/05 10:36:12;;;;;;;0.97;0.97;;;;;;;;;;5134585;27;20428;-70
2022/10/05 10:38:50;;;;;;;1.90;1.03;;;;;;;;;;5134587;27;20396;-69
2022/10/05 10:41:16;;;;;;;0.87;0.87;;;;;;;;;;5134574;27;20417;-70
2022/10/05 10:44:01;;;;;;;0.90;0.90;;;;;;;;;;5116095;28;20510;-69
2022/10/05 10:46:46;;;;;;;5.13;1.10;;;;;;;;;;5134509;27;20183;-69
2022/10/05 10:49:18;;;;;;;2.30;1.13;;;;;;;;;;5134364;27;20973;-68
2022/10/05 10:51:55;;;;;;;7.10;1.30;;;;;;;;;;5116031;28;20441;-69
2022/10/05 10:54:21;;;;;;;1.90;1.10;;;;;;;;;;5134484;28;20408;-69
2022/10/05 10:56:54;;;;;;;1.07;1.03;;;;;;;;;;5134408;28;20878;-68
2022/10/05 10:59:40;;;;;;;1.90;1.00;;;;;;;;;;5134311;28;20399;-69
2022/10/05 11:02:19;;;;;;;1.80;0.97;;;;;;;;;;5134329;28;20406;-69
2022/10/05 11:05:00;;;;;;;2.17;1.20;;;;;;;;;;5134241;28;20462;-70
2022/10/05 11:07:45;;;;;;;2.10;1.00;;;;;;;;;;5134202;28;20810;-70
2022/10/05 11:10:30;;;;;;;7.43;1.10;;;;;;;;;;5115883;28;20511;-70
2022/10/05 11:13:08;;;;;;;0.90;0.90;;;;;;;;;;5134270;28;20395;-71
2022/10/05 11:15:52;;;;;;;1.07;1.00;;;;;;;;;;5134154;28;20431;-68
2022/10/05 11:18:21;;;;;;;5.67;1.27;;;;;;;;;;5134014;28;20403;-70
2022/10/05 11:20:47;;;;;;;0.80;0.80;;;;;;;;;;5115729;28;20427;-69
2022/10/05 11:23:27;;;;;;;1.50;1.23;;;;;;;;;;5134130;27;20418;-69
2022/10/05 11:26:11;;;;;;;1.10;1.10;;;;;;;;;;5137648;27;20193;-69
2022/10/05 11:28:48;;;;;;;0.90;0.90;;;;;;;;;;5138158;27;20472;-70
2022/10/05 11:31:20;;;;;;;0.83;0.83;;;;;;;;;;5138162;27;20487;-70
2022/10/05 11:33:58;;;;;;;1.40;1.30;;;;;;;;;;5138041;27;20399;-69
2022/10/05 11:36:31;;;;;;;1.20;1.20;;;;;;;;;;5137963;27;20411;-70
2022/10/05 11:39:14;;;;;;;1.00;0.83;;;;;;;;;;5137980;27;20402;-71
2022/10/05 11:41:59;;;;;;;1.43;1.33;;;;;;;;;;5137943;27;20410;-71
2022/10/05 11:44:28;;;;;;;1.20;0.90;;;;;;;;;;5137856;27;20403;-70
2022/10/05 11:46:59;;;;;;;1.10;0.97;;;;;;;;;;5137773;27;20389;-69
2022/10/05 11:49:46;;;;;;;1.20;1.20;;;;;;;;;;5137712;27;20951;-71
2022/10/05 11:52:17;;;;;;;0.80;0.80;;;;;;;;;;5137620;27;20407;-69
2022/10/05 11:55:06;;;;;;;2.43;1.20;;;;;;;;;;5137778;27;20413;-70
2022/10/05 11:57:36;;;;;;;1.03;1.03;;;;;;;;;;5090249;27;20979;-70
2022/10/05 12:00:19;;;;;;;1.50;1.20;;;;;;;;;;5137562;27;20464;-69
2022/10/05 12:03:04;;;;;;;1.20;1.20;;;;;;;;;;5137635;27;20791;-70
2022/10/05 12:05:36;;;;;;;1.30;1.00;;;;;;;;;;5137311;27;20447;-70
2022/10/05 12:08:10;;;;;;;1.40;1.30;;;;;;;;;;5137213;27;20451;-70
2022/10/05 12:10:42;;;;;;;1.00;1.00;;;;;;;;;;5137340;27;20408;-70
2022/10/05 12:13:18;;;;;;;1.03;1.03;;;;;;;;;;5137332;27;20411;-72
2022/10/05 12:16:02;;;;;;;1.80;1.10;;;;;;;;;;5137278;27;20398;-69
2022/10/05 12:18:32;;;;;;;1.20;1.10;;;;;;;;;;5137160;27;20408;-69
2022/10/05 12:21:05;;;;;;;1.10;1.10;;;;;;;;;;5118699;27;20426;-69
2022/10/05 12:23:37;;;;;;;1.30;1.30;;;;;;;;;;5137063;27;20430;-69
2022/10/05 12:26:04;;;;;;;1.27;1.17;;;;;;;;;;5137009;27;20815;-69
2022/10/05 12:28:49;;;;;;;7.93;1.50;;;;;;;;;;5136955;27;20463;-69
2022/10/05 12:31:15;;;;;;;1.10;1.10;;;;;;;;;;5136967;27;20405;-69
2022/10/05 12:33:57;;;;;;;2.50;1.10;;;;;;;;;;5118447;27;20509;-70
2022/10/05 12:36:28;;;;;;;1.20;1.20;;;;;;;;;;5136679;27;20194;-70
2022/10/05 12:39:03;;;;;;;1.37;1.20;;;;;;;;;;5136805;27;20748;-70
2022/10/05 12:41:52;;;;;;;2.63;1.40;;;;;;;;;;5136832;27;20422;-70
2022/10/05 12:44:18;;;;;;;1.17;1.03;;;;;;;;;;5136718;27;20406;-69
2022/10/05 12:47:01;;;;;;;1.53;1.00;;;;;;;;;;5136621;27;20460;-69
2022/10/05 12:49:33;;;;;;;1.10;1.00;;;;;;;;;;5136815;27;20242;-71
2022/10/05 12:52:00;;;;;;;1.53;1.30;;;;;;;;;;5136496;27;20408;-69
2022/10/05 12:54:52;;;;;;;3.40;1.10;;;;;;;;;;5136592;27;20404;-67
2022/10/05 12:57:37;;;;;;;2.10;1.20;;;;;;;;;;5118300;27;20826;-69
2022/10/05 13:00:05;;;;;;;1.20;1.20;;;;;;;;;;5136561;27;20422;-71
2022/10/05 13:02:38;;;;;;;1.30;1.20;;;;;;;;;;5136332;27;20405;-70
2022/10/05 13:05:03;;;;;;;3.23;1.10;;;;;;;;;;5136208;27;20477;-70
2022/10/05 13:07:56;;;;;;;1.93;1.10;;;;;;;;;;5136132;27;20403;-71
2022/10/05 13:10:37;;;;;;;2.63;1.10;;;;;;;;;;5136211;27;20187;-72
2022/10/05 13:13:14;;;;;;;1.47;1.00;;;;;;;;;;5136188;27;20407;-71
2022/10/05 13:15:53;;;;;;;1.93;1.20;;;;;;;;;;5136099;27;20457;-71
2022/10/05 13:18:22;;;;;;;2.20;1.23;;;;;;;;;;5136041;27;20452;-70
2022/10/05 13:20:57;;;;;;;6.23;1.40;;;;;;;;;;5136019;27;20423;-72
2022/10/05 13:23:38;;;;;;;1.30;1.27;;;;;;;;;;5135927;27;20399;-73
2022/10/05 13:26:12;;;;;;;1.40;1.40;;;;;;;;;;5135880;27;20413;-74
2022/10/05 13:29:05;;;;;;;1.23;1.23;;;;;;;;;;5117263;27;20892;-70
2022/10/05 13:31:34;;;;;;;3.43;1.00;;;;;;;;;;5096903;27;20449;-72
2022/10/05 13:34:06;;;;;;;9.13;1.30;;;;;;;;;;5135688;27;20403;-73
2022/10/05 13:36:32;;;;;;;6.20;1.13;;;;;;;;;;5135640;27;20415;-71
2022/10/05 13:39:03;;;;;;;2.60;0.93;;;;;;;;;;5135599;27;20941;-75
2022/10/05 13:41:40;;;;;;;1.50;1.40;;;;;;;;;;5135643;27;20504;-73
2022/10/05 13:44:15;;;;;;;1.93;1.10;;;;;;;;;;5135572;27;20397;-72
2022/10/05 13:46:46;;;;;;;3.90;1.17;;;;;;;;;;5135014;27;20431;-74
2022/10/05 13:49:18;;;;;;;2.10;1.23;;;;;;;;;;5135342;27;20959;-72
2022/10/05 13:51:44;;;;;;;3.80;1.20;;;;;;;;;;5116874;27;20935;-72
2022/10/05 13:54:16;;;;;;;2.97;1.50;;;;;;;;;;5135299;27;20882;-74
2022/10/05 13:56:44;;;;;;;2.57;1.53;;;;;;;;;;5135272;27;20461;-72
2022/10/05 13:59:16;;;;;;;1.30;1.20;;;;;;;;;;5135159;27;20516;-72
2022/10/05 14:01:58;;;;;;;3.07;1.37;;;;;;;;;;5135156;27;20909;-72
2022/10/05 14:04:28;;;;;;;1.40;1.30;;;;;;;;;;5116554;27;21036;-73
2022/10/05 14:06:55;;;;;;;1.23;1.10;;;;;;;;;;5116609;27;20427;-73
2022/10/05 14:09:31;;;;;;;7.83;1.57;;;;;;;;;;5134787;27;21018;-72
2022/10/05 14:12:03;;;;;;;1.40;0.80;;;;;;;;;;5134994;27;20418;-73
2022/10/05 14:14:31;;;;;;;1.50;1.40;;;;;;;;;;5134926;27;20448;-73
2022/10/05 14:16:58;;;;;;;1.37;1.27;;;;;;;;;;5134943;27;20392;-73
2022/10/05 14:19:30;;;;;;;6.33;1.10;;;;;;;;;;5134798;27;20809;-73
2022/10/05 14:22:10;;;;;;;1.20;1.20;;;;;;;;;;5134771;27;20415;-73
2022/10/05 14:24:45;;;;;;;0.90;0.90;;;;;;;;;;5116234;27;20954;-72
2022/10/05 14:27:35;;;;;;;2.40;1.10;;;;;;;;;;5116181;27;20420;-72
2022/10/05 14:30:13;;;;;;;5.07;1.37;;;;;;;;;;5116082;27;20801;-72
2022/10/05 14:32:47;;;;;;;1.50;1.40;;;;;;;;;;5134427;27;20874;-74
2022/10/05 14:35:14;;;;;;;2.90;1.63;;;;;;;;;;5134445;27;20435;-73
2022/10/05 14:37:43;;;;;;;2.20;1.53;;;;;;;;;;5134641;27;20397;-74
2022/10/05 14:40:32;;;;;;;4.40;1.57;;;;;;;;;;5134526;27;20415;-72
2022/10/05 14:43:17;;;;;;;2.07;1.30;;;;;;;;;;5134348;27;20387;-73
2022/10/05 14:45:54;;;;;;;2.30;1.37;;;;;;;;;;5134391;27;20957;-73
2022/10/05 14:48:20;;;;;;;2.43;1.50;;;;;;;;;;5134186;27;20469;-74
2022/10/05 14:50:53;;;;;;;1.20;1.20;;;;;;;;;;5134245;27;20411;-71
2022/10/05 14:53:20;;;;;;;2.30;1.50;;;;;;;;;;5134300;28;20888;-73
2022/10/05 14:55:54;;;;;;;12.10;2.13;;;;;;;;;;5134213;28;20403;-71
2022/10/05 14:58:41;;;;;;;3.37;1.40;;;;;;;;;;5134270;27;20395;-73
2022/10/05 15:01:21;;;;;;;2.10;1.50;;;;;;;;;;5138402;27;20427;-74
2022/10/05 15:03:53;;;;;;;2.57;1.17;;;;;;;;;;5120099;27;20605;-73
2022/10/05 15:06:26;;;;;;;2.50;1.40;;;;;;;;;;5138485;27;20470;-72
2022/10/05 15:09:02;;;;;;;1.23;1.23;;;;;;;;;;5138467;27;20481;-72
2022/10/05 15:11:37;;;;;;;1.50;1.40;;;;;;;;;;5138552;27;20395;-73
2022/10/05 15:14:10;;;;;;;3.20;1.50;;;;;;;;;;5138464;27;20395;-70
2022/10/05 15:16:37;;;;;;;2.30;1.40;;;;;;;;;;5138422;27;20493;-73
2022/10/05 15:19:03;;;;;;;1.90;1.30;;;;;;;;;;5138418;27;20462;-71
2022/10/05 15:21:41;;;;;;;1.97;1.40;;;;;;;;;;5138392;27;20396;-73
2022/10/05 15:24:12;;;;;;;7.73;1.67;;;;;;;;;;5138543;27;20777;-72
2022/10/05 15:26:37;;;;;;;1.73;1.70;;;;;;;;;;5138126;27;20391;-70
2022/10/05 15:29:15;;;;;;;1.43;1.43;;;;;;;;;;5138134;27;21008;-72
2022/10/05 15:31:59;;;;;;;2.00;1.83;;;;;;;;;;5138107;27;20674;-71